sensor_id;sensor_type;location;lat;lon;timestamp;pressure;altitude;pressure_sealevel;temperature;humidity
49843;BME280;55559;48.898;9.184;2023-04-02T00:00:35;97610.00;;;8.68;100.00
49843;BME280;55559;48.898;9.184;2023-04-02T00:03:03;97606.66;;;8.66;100.00
49843;BME280;55559;48.898;9.184;2023-04-02T00:05:41;97607.91;;;8.62;100.00
49843;BME280;55559;48.898;9.184;2023-04-02T00:08:35;97617.84;;;8.60;100.00
49843;BME280;55559;48.898;9.184;2023-04-02T00:11:06;97617.84;;;8.60;100.00
49843;BME280;55559;48.898;9.184;2023-04-02T00:13:37;97621.47;;;8.59;100.00
49843;BME280;55559;48.898;9.184;2023-04-02T00:16:07;97628.56;;;8.58;100.00
49843;BME280;55559;48.898;9.184;2023-04-02T00:18:41;97629.28;;;8.60;100.00
49843;BME280;55559;48.898;9.184;2023-04-02T00:21:16;97630.41;;;8.57;100.00
49843;BME280;55559;48.898;9.184;2023-04-02T00:23:47;97623.72;;;8.53;100.00
49843;BME280;55559;48.898;9.184;2023-04-02T00:26:21;97636.41;;;8.50;100.00
49843;BME280;55559;48.898;9.184;2023-04-02T00:28:49;97634.34;;;8.53;100.00
49843;BME280;55559;48.898;9.184;2023-04-02T00:31:18;97632.66;;;8.52;100.00
49843;BME280;55559;48.898;9.184;2023-04-02T00:33:47;97637.94;;;8.52;100.00
49843;BME280;55559;48.898;9.184;2023-04-02T00:36:17;97648.69;;;8.51;100.00
49843;BME280;55559;48.898;9.184;2023-04-02T00:38:47;97642.41;;;8.52;100.00
49843;BME280;55559;48.898;9.184;2023-04-02T00:41:23;97643.13;;;8.44;100.00
49843;BME280;55559;48.898;9.184;2023-04-02T00:43:55;97643.13;;;8.44;100.00
49843;BME280;55559;48.898;9.184;2023-04-02T00:46:27;97639.06;;;8.50;100.00
49843;BME280;55559;48.898;9.184;2023-04-02T00:49:00;97636.72;;;8.47;100.00
49843;BME280;55559;48.898;9.184;2023-04-02T00:51:31;97648.00;;;8.49;100.00
49843;BME280;55559;48.898;9.184;2023-04-02T00:54:05;97645.50;;;8.47;100.00
49843;BME280;55559;48.898;9.184;2023-04-02T00:56:38;97648.28;;;8.46;100.00
49843;BME280;55559;48.898;9.184;2023-04-02T00:59:16;97649.25;;;8.45;100.00
49843;BME280;55559;48.898;9.184;2023-04-02T01:01:51;97648.00;;;8.49;100.00
49843;BME280;55559;48.898;9.184;2023-04-02T01:04:32;97650.38;;;8.52;100.00
49843;BME280;55559;48.898;9.184;2023-04-02T01:07:01;97654.81;;;8.42;100.00
49843;BME280;55559;48.898;9.184;2023-04-02T01:09:52;97654.25;;;8.38;100.00
49843;BME280;55559;48.898;9.184;2023-04-02T01:12:36;97649.66;;;8.40;100.00
49843;BME280;55559;48.898;9.184;2023-04-02T01:15:11;97659.41;;;8.39;100.00
49843;BME280;55559;48.898;9.184;2023-04-02T01:17:59;97651.22;;;8.43;100.00
49843;BME280;55559;48.898;9.184;2023-04-02T01:21:06;97665.28;;;8.43;100.00
49843;BME280;55559;48.898;9.184;2023-04-02T01:23:43;97668.22;;;8.40;100.00
49843;BME280;55559;48.898;9.184;2023-04-02T01:26:20;97662.34;;;8.46;100.00
49843;BME280;55559;48.898;9.184;2023-04-02T01:28:59;97662.34;;;8.46;100.00
49843;BME280;55559;48.898;9.184;2023-04-02T01:31:28;97671.72;;;8.50;100.00
49843;BME280;55559;48.898;9.184;2023-04-02T01:33:58;97659.41;;;8.49;100.00
49843;BME280;55559;48.898;9.184;2023-04-02T01:36:33;97667.09;;;8.43;100.00
49843;BME280;55559;48.898;9.184;2023-04-02T01:39:09;97662.19;;;8.38;100.00
49843;BME280;55559;48.898;9.184;2023-04-02T01:41:44;97677.13;;;8.39;100.00
49843;BME280;55559;48.898;9.184;2023-04-02T01:44:19;97675.88;;;8.43;100.00
49843;BME280;55559;48.898;9.184;2023-04-02T01:46:49;97678.66;;;8.42;100.00
49843;BME280;55559;48.898;9.184;2023-04-02T01:49:19;97686.63;;;8.42;100.00
49843;BME280;55559;48.898;9.184;2023-04-02T01:51:51;97686.34;;;8.35;100.00
49843;BME280;55559;48.898;9.184;2023-04-02T01:54:22;97686.75;;;8.40;100.00
49843;BME280;55559;48.898;9.184;2023-04-02T01:56:50;97686.34;;;8.35;100.00
49843;BME280;55559;48.898;9.184;2023-04-02T01:59:20;97687.31;;;8.34;100.00
49843;BME280;55559;48.898;9.184;2023-04-02T02:01:58;97695.66;;;8.39;100.00
49843;BME280;55559;48.898;9.184;2023-04-02T02:04:30;97683.69;;;8.35;100.00
49843;BME280;55559;48.898;9.184;2023-04-02T02:06:58;97688.59;;;8.30;100.00
49843;BME280;55559;48.898;9.184;2023-04-02T02:09:29;97689.69;;;8.37;100.00
49843;BME280;55559;48.898;9.184;2023-04-02T02:11:59;97690.38;;;8.39;100.00
49843;BME280;55559;48.898;9.184;2023-04-02T02:14:30;97693.47;;;8.44;100.00
49843;BME280;55559;48.898;9.184;2023-04-02T02:16:59;97697.34;;;8.40;100.00
49843;BME280;55559;48.898;9.184;2023-04-02T02:19:32;97708.66;;;8.32;100.00
49843;BME280;55559;48.898;9.184;2023-04-02T02:22:08;97698.59;;;8.36;100.00
49843;BME280;55559;48.898;9.184;2023-04-02T02:24:39;97706.97;;;8.41;100.00
49843;BME280;55559;48.898;9.184;2023-04-02T02:30:18;97706.97;;;8.41;100.00
49843;BME280;55559;48.898;9.184;2023-04-02T02:32:53;97707.94;;;8.40;100.00
49843;BME280;55559;48.898;9.184;2023-04-02T02:35:26;97705.44;;;8.38;100.00
49843;BME280;55559;48.898;9.184;2023-04-02T02:38:05;97707.53;;;8.35;100.00
49843;BME280;55559;48.898;9.184;2023-04-02T02:40:38;97713.25;;;8.40;100.00
49843;BME280;55559;48.898;9.184;2023-04-02T02:43:11;97717.03;;;8.47;100.00
49843;BME280;55559;48.898;9.184;2023-04-02T02:45:41;97714.91;;;8.41;100.00
49843;BME280;55559;48.898;9.184;2023-04-02T02:48:14;97723.44;;;8.45;100.00
49843;BME280;55559;48.898;9.184;2023-04-02T02:50:44;97712.38;;;8.39;100.00
49843;BME280;55559;48.898;9.184;2023-04-02T02:53:19;97719.25;;;8.42;100.00
49843;BME280;55559;48.898;9.184;2023-04-02T02:55:50;97729.31;;;8.48;100.00
49843;BME280;55559;48.898;9.184;2023-04-02T02:58:25;97721.88;;;8.42;100.00
49843;BME280;55559;48.898;9.184;2023-04-02T03:01:14;97723.84;;;8.40;100.00
49843;BME280;55559;48.898;9.184;2023-04-02T03:03:45;97728.72;;;8.45;100.00
49843;BME280;55559;48.898;9.184;2023-04-02T03:06:15;97726.81;;;8.47;100.00
49843;BME280;55559;48.898;9.184;2023-04-02T03:08:52;97729.84;;;8.42;100.00
49843;BME280;55559;48.898;9.184;2023-04-02T03:11:35;97735.28;;;8.41;100.00
49843;BME280;55559;48.898;9.184;2023-04-02T03:14:17;97740.59;;;8.50;100.00
49843;BME280;55559;48.898;9.184;2023-04-02T03:16:52;97734.75;;;8.47;100.00
49843;BME280;55559;48.898;9.184;2023-04-02T03:19:28;97740.19;;;8.45;100.00
49843;BME280;55559;48.898;9.184;2023-04-02T03:22:02;97744.50;;;8.46;100.00
49843;BME280;55559;48.898;9.184;2023-04-02T03:24:40;97744.75;;;8.43;100.00
49843;BME280;55559;48.898;9.184;2023-04-02T03:27:14;97751.03;;;8.42;100.00
49843;BME280;55559;48.898;9.184;2023-04-02T03:29:49;97745.63;;;8.44;100.00
49843;BME280;55559;48.898;9.184;2023-04-02T03:32:23;97751.59;;;8.46;100.00
49843;BME280;55559;48.898;9.184;2023-04-02T03:34:56;97753.28;;;8.47;100.00
49843;BME280;55559;48.898;9.184;2023-04-02T03:37:28;97759.28;;;8.49;100.00
49843;BME280;55559;48.898;9.184;2023-04-02T03:40:00;97760.94;;;8.50;100.00
49843;BME280;55559;48.898;9.184;2023-04-02T03:42:37;97758.59;;;8.47;100.00
49843;BME280;55559;48.898;9.184;2023-04-02T03:45:12;97763.16;;;8.45;100.00
49843;BME280;55559;48.898;9.184;2023-04-02T03:47:47;97770.72;;;8.49;100.00
49843;BME280;55559;48.898;9.184;2023-04-02T03:50:20;97767.50;;;8.46;100.00
49843;BME280;55559;48.898;9.184;2023-04-02T03:52:56;97771.69;;;8.48;100.00
49843;BME280;55559;48.898;9.184;2023-04-02T03:55:25;97774.91;;;8.52;100.00
49843;BME280;55559;48.898;9.184;2023-04-02T03:57:58;97775.03;;;8.50;100.00
49843;BME280;55559;48.898;9.184;2023-04-02T04:00:34;97776.41;;;8.54;100.00
49843;BME280;55559;48.898;9.184;2023-04-02T04:03:10;97777.28;;;8.55;100.00
49843;BME280;55559;48.898;9.184;2023-04-02T04:05:44;97785.22;;;8.55;100.00
49843;BME280;55559;48.898;9.184;2023-04-02T04:08:17;97785.38;;;8.53;100.00
49843;BME280;55559;48.898;9.184;2023-04-02T04:10:50;97794.84;;;8.56;100.00
49843;BME280;55559;48.898;9.184;2023-04-02T04:13:23;97794.56;;;8.59;100.00
49843;BME280;55559;48.898;9.184;2023-04-02T04:15:58;97797.34;;;8.57;100.00
49843;BME280;55559;48.898;9.184;2023-04-02T04:18:32;97803.91;;;8.53;100.00
49843;BME280;55559;48.898;9.184;2023-04-02T04:21:14;97805.28;;;8.57;100.00
49843;BME280;55559;48.898;9.184;2023-04-02T04:24:02;97806.44;;;8.55;100.00
49843;BME280;55559;48.898;9.184;2023-04-02T04:26:39;97819.41;;;8.48;100.00
49843;BME280;55559;48.898;9.184;2023-04-02T04:29:18;97817.31;;;8.52;100.00
49843;BME280;55559;48.898;9.184;2023-04-02T04:31:54;97822.06;;;8.48;100.00
49843;BME280;55559;48.898;9.184;2023-04-02T04:34:31;97815.63;;;8.51;100.00
49843;BME280;55559;48.898;9.184;2023-04-02T04:37:17;97826.06;;;8.43;100.00
49843;BME280;55559;48.898;9.184;2023-04-02T04:39:51;97826.63;;;8.36;100.00
49843;BME280;55559;48.898;9.184;2023-04-02T04:42:24;97837.22;;;8.36;100.00
49843;BME280;55559;48.898;9.184;2023-04-02T04:44:58;97839.56;;;8.30;100.00
49843;BME280;55559;48.898;9.184;2023-04-02T04:47:30;97840.66;;;8.27;100.00
49843;BME280;55559;48.898;9.184;2023-04-02T04:50:04;97839.72;;;8.28;100.00
49843;BME280;55559;48.898;9.184;2023-04-02T04:52:39;97850.44;;;8.27;100.00
49843;BME280;55559;48.898;9.184;2023-04-02T04:55:25;97847.91;;;8.25;100.00
49843;BME280;55559;48.898;9.184;2023-04-02T04:57:56;97846.38;;;8.23;100.00
49843;BME280;55559;48.898;9.184;2023-04-02T05:00:29;97851.97;;;8.29;100.00
49843;BME280;55559;48.898;9.184;2023-04-02T05:03:04;97858.38;;;8.27;100.00
49843;BME280;55559;48.898;9.184;2023-04-02T05:05:38;97858.91;;;8.20;100.00
49843;BME280;55559;48.898;9.184;2023-04-02T05:08:12;97867.28;;;8.26;100.00
49843;BME280;55559;48.898;9.184;2023-04-02T05:10:44;97864.63;;;8.26;100.00
49843;BME280;55559;48.898;9.184;2023-04-02T05:13:16;97871.91;;;8.24;100.00
49843;BME280;55559;48.898;9.184;2023-04-02T05:15:49;97867.84;;;8.29;100.00
49843;BME280;55559;48.898;9.184;2023-04-02T05:18:24;97876.06;;;8.26;100.00
49843;BME280;55559;48.898;9.184;2023-04-02T05:21:02;97871.66;;;8.36;100.00
49843;BME280;55559;48.898;9.184;2023-04-02T05:23:34;97879.44;;;8.38;100.00
49843;BME280;55559;48.898;9.184;2023-04-02T05:26:07;97880.28;;;8.38;100.00
49843;BME280;55559;48.898;9.184;2023-04-02T05:28:42;97885.16;;;8.33;100.00
49843;BME280;55559;48.898;9.184;2023-04-02T05:31:15;97883.91;;;8.37;100.00
49843;BME280;55559;48.898;9.184;2023-04-02T05:33:46;97892.38;;;8.31;100.00
49843;BME280;55559;48.898;9.184;2023-04-02T05:36:20;97900.63;;;8.28;100.00
49843;BME280;55559;48.898;9.184;2023-04-02T05:38:53;97895.91;;;8.32;100.00
49843;BME280;55559;48.898;9.184;2023-04-02T05:41:40;97908.00;;;8.34;100.00
49843;BME280;55559;48.898;9.184;2023-04-02T05:44:15;97907.03;;;8.26;100.00
49843;BME280;55559;48.898;9.184;2023-04-02T05:46:48;97911.63;;;8.24;100.00
49843;BME280;55559;48.898;9.184;2023-04-02T05:49:24;97915.53;;;8.29;100.00
49843;BME280;55559;48.898;9.184;2023-04-02T05:51:56;97911.50;;;8.25;100.00
49843;BME280;55559;48.898;9.184;2023-04-02T05:54:29;97911.47;;;8.15;100.00
49843;BME280;55559;48.898;9.184;2023-04-02T05:57:01;97913.16;;;8.16;100.00
49843;BME280;55559;48.898;9.184;2023-04-02T05:59:32;97916.78;;;8.25;100.00
49843;BME280;55559;48.898;9.184;2023-04-02T06:02:06;97926.56;;;8.25;100.00
49843;BME280;55559;48.898;9.184;2023-04-02T06:04:44;97929.63;;;8.30;100.00
49843;BME280;55559;48.898;9.184;2023-04-02T06:07:18;97935.72;;;8.20;100.00
49843;BME280;55559;48.898;9.184;2023-04-02T06:09:54;97937.69;;;8.18;100.00
49843;BME280;55559;48.898;9.184;2023-04-02T06:12:27;97942.88;;;8.30;100.00
49843;BME280;55559;48.898;9.184;2023-04-02T06:14:58;97941.63;;;8.34;100.00
49843;BME280;55559;48.898;9.184;2023-04-02T06:17:29;97945.34;;;8.22;100.00
49843;BME280;55559;48.898;9.184;2023-04-02T06:20:00;97944.41;;;8.32;100.00
49843;BME280;55559;48.898;9.184;2023-04-02T06:22:35;97948.31;;;8.28;100.00
49843;BME280;55559;48.898;9.184;2023-04-02T06:25:10;97957.47;;;8.24;100.00
49843;BME280;55559;48.898;9.184;2023-04-02T06:27:43;97959.16;;;8.25;100.00
49843;BME280;55559;48.898;9.184;2023-04-02T06:30:19;97960.16;;;8.34;100.00
49843;BME280;55559;48.898;9.184;2023-04-02T06:32:50;97967.84;;;8.37;100.00
49843;BME280;55559;48.898;9.184;2023-04-02T06:35:19;97967.91;;;8.56;100.00
49843;BME280;55559;48.898;9.184;2023-04-02T06:37:58;97974.78;;;8.69;100.00
49843;BME280;55559;48.898;9.184;2023-04-02T06:40:38;97980.78;;;8.71;100.00
49843;BME280;55559;48.898;9.184;2023-04-02T06:43:16;97974.50;;;8.62;100.00
49843;BME280;55559;48.898;9.184;2023-04-02T06:45:58;97986.38;;;8.68;100.00
49843;BME280;55559;48.898;9.184;2023-04-02T06:48:45;97993.78;;;8.74;100.00
49843;BME280;55559;48.898;9.184;2023-04-02T06:51:15;97994.19;;;8.69;100.00
49843;BME280;55559;48.898;9.184;2023-04-02T06:53:47;97990.03;;;8.86;100.00
49843;BME280;55559;48.898;9.184;2023-04-02T06:56:24;98002.88;;;8.91;100.00
49843;BME280;55559;48.898;9.184;2023-04-02T06:58:54;98009.84;;;8.82;100.00
49843;BME280;55559;48.898;9.184;2023-04-02T07:01:25;98010.00;;;9.00;100.00
49843;BME280;55559;48.898;9.184;2023-04-02T07:03:54;98006.34;;;8.91;100.00
49843;BME280;55559;48.898;9.184;2023-04-02T07:06:30;98014.19;;;8.93;100.00
49843;BME280;55559;48.898;9.184;2023-04-02T07:09:01;98009.16;;;9.00;100.00
49843;BME280;55559;48.898;9.184;2023-04-02T07:11:29;98028.84;;;9.07;100.00
49843;BME280;55559;48.898;9.184;2023-04-02T07:14:00;98034.41;;;9.04;100.00
49843;BME280;55559;48.898;9.184;2023-04-02T07:16:30;98028.84;;;9.17;100.00
49843;BME280;55559;48.898;9.184;2023-04-02T07:18:58;98034.59;;;9.22;100.00
49843;BME280;55559;48.898;9.184;2023-04-02T07:21:30;98034.44;;;9.23;100.00
49843;BME280;55559;48.898;9.184;2023-04-02T07:23:58;98030.81;;;9.15;100.00
49843;BME280;55559;48.898;9.184;2023-04-02T07:26:27;98038.50;;;9.27;100.00
49843;BME280;55559;48.898;9.184;2023-04-02T07:28:55;98048.69;;;9.32;100.00
49843;BME280;55559;48.898;9.184;2023-04-02T07:31:24;98043.94;;;9.36;100.00
49843;BME280;55559;48.898;9.184;2023-04-02T07:33:53;98053.47;;;9.48;100.00
49843;BME280;55559;48.898;9.184;2023-04-02T07:36:22;98054.84;;;9.52;100.00
49843;BME280;55559;48.898;9.184;2023-04-02T07:38:51;98062.53;;;9.55;100.00
49843;BME280;55559;48.898;9.184;2023-04-02T07:41:19;98060.03;;;9.63;100.00
49843;BME280;55559;48.898;9.184;2023-04-02T07:43:49;98058.75;;;9.58;100.00
49843;BME280;55559;48.898;9.184;2023-04-02T07:46:17;98061.81;;;9.73;100.00
49843;BME280;55559;48.898;9.184;2023-04-02T07:48:45;98065.88;;;9.77;100.00
49843;BME280;55559;48.898;9.184;2023-04-02T07:51:15;98072.44;;;9.73;100.00
49843;BME280;55559;48.898;9.184;2023-04-02T07:53:43;98081.81;;;9.77;100.00
49843;BME280;55559;48.898;9.184;2023-04-02T07:56:16;98084.34;;;9.78;100.00
49843;BME280;55559;48.898;9.184;2023-04-02T07:58:44;98085.59;;;9.55;100.00
49843;BME280;55559;48.898;9.184;2023-04-02T08:01:18;98090.31;;;9.61;100.00
49843;BME280;55559;48.898;9.184;2023-04-02T08:03:46;98095.22;;;9.65;100.00
49843;BME280;55559;48.898;9.184;2023-04-02T08:06:14;98097.19;;;9.73;100.00
49843;BME280;55559;48.898;9.184;2023-04-02T08:08:42;98099.97;;;9.62;100.00
49843;BME280;55559;48.898;9.184;2023-04-02T08:11:10;98102.09;;;9.68;100.00
49843;BME280;55559;48.898;9.184;2023-04-02T08:13:37;98101.38;;;9.66;100.00
49843;BME280;55559;48.898;9.184;2023-04-02T08:16:06;98095.09;;;9.77;100.00
49843;BME280;55559;48.898;9.184;2023-04-02T08:18:35;98112.41;;;9.71;100.00
49843;BME280;55559;48.898;9.184;2023-04-02T08:21:05;98116.88;;;9.71;100.00
49843;BME280;55559;48.898;9.184;2023-04-02T08:23:33;98116.06;;;9.80;100.00
49843;BME280;55559;48.898;9.184;2023-04-02T08:26:01;98107.09;;;9.91;100.00
49843;BME280;55559;48.898;9.184;2023-04-02T08:28:30;98117.16;;;9.77;100.00
49843;BME280;55559;48.898;9.184;2023-04-02T08:30:57;98129.59;;;9.67;100.00
49843;BME280;55559;48.898;9.184;2023-04-02T08:33:25;98126.97;;;9.77;100.00
49843;BME280;55559;48.898;9.184;2023-04-02T08:35:54;98136.03;;;9.94;100.00
49843;BME280;55559;48.898;9.184;2023-04-02T08:38:22;98132.09;;;9.98;100.00
49843;BME280;55559;48.898;9.184;2023-04-02T08:40:51;98134.31;;;10.32;100.00
49843;BME280;55559;48.898;9.184;2023-04-02T08:43:29;98141.06;;;10.36;100.00
49843;BME280;55559;48.898;9.184;2023-04-02T08:46:07;98144.09;;;10.31;100.00
49843;BME280;55559;48.898;9.184;2023-04-02T08:48:38;98143.97;;;10.23;100.00
49843;BME280;55559;48.898;9.184;2023-04-02T08:51:21;98147.19;;;10.17;100.00
49843;BME280;55559;48.898;9.184;2023-04-02T08:53:50;98155.31;;;10.15;100.00
49843;BME280;55559;48.898;9.184;2023-04-02T08:56:22;98156.44;;;10.13;100.00
49843;BME280;55559;48.898;9.184;2023-04-02T08:58:55;98150.97;;;10.24;100.00
49843;BME280;55559;48.898;9.184;2023-04-02T09:01:32;98160.75;;;10.33;100.00
49843;BME280;55559;48.898;9.184;2023-04-02T09:04:05;98169.41;;;10.45;100.00
49843;BME280;55559;48.898;9.184;2023-04-02T09:06:34;98168.59;;;10.45;100.00
49843;BME280;55559;48.898;9.184;2023-04-02T09:09:02;98166.38;;;10.77;100.00
49843;BME280;55559;48.898;9.184;2023-04-02T09:11:34;98176.22;;;10.67;100.00
49843;BME280;55559;48.898;9.184;2023-04-02T09:14:13;98174.88;;;10.91;100.00
49843;BME280;55559;48.898;9.184;2023-04-02T09:16:45;98179.72;;;11.33;100.00
49843;BME280;55559;48.898;9.184;2023-04-02T09:19:17;98177.66;;;11.54;100.00
49843;BME280;55559;48.898;9.184;2023-04-02T09:21:56;98173.47;;;11.70;100.00
49843;BME280;55559;48.898;9.184;2023-04-02T09:24:26;98181.47;;;11.98;100.00
49843;BME280;55559;48.898;9.184;2023-04-02T09:26:54;98174.44;;;12.15;100.00
49843;BME280;55559;48.898;9.184;2023-04-02T09:29:38;98177.19;;;12.49;100.00
49843;BME280;55559;48.898;9.184;2023-04-02T09:35:15;98194.53;;;12.09;100.00
49843;BME280;55559;48.898;9.184;2023-04-02T09:37:45;98197.94;;;12.37;100.00
49843;BME280;55559;48.898;9.184;2023-04-02T09:40:21;98190.59;;;12.13;100.00
49843;BME280;55559;48.898;9.184;2023-04-02T09:43:01;98197.50;;;12.42;100.00
49843;BME280;55559;48.898;9.184;2023-04-02T09:45:29;98207.91;;;12.53;100.00
49843;BME280;55559;48.898;9.184;2023-04-02T09:47:56;98201.06;;;12.33;100.00
49843;BME280;55559;48.898;9.184;2023-04-02T09:50:27;98213.25;;;12.35;100.00
49843;BME280;55559;48.898;9.184;2023-04-02T09:52:56;98215.00;;;12.44;100.00
49843;BME280;55559;48.898;9.184;2023-04-02T09:55:25;98214.13;;;12.00;100.00
49843;BME280;55559;48.898;9.184;2023-04-02T09:58:11;98219.09;;;12.13;100.00
49843;BME280;55559;48.898;9.184;2023-04-02T10:00:49;98219.06;;;12.31;100.00
49843;BME280;55559;48.898;9.184;2023-04-02T10:03:24;98225.91;;;12.15;100.00
49843;BME280;55559;48.898;9.184;2023-04-02T10:06:06;98208.97;;;11.88;100.00
49843;BME280;55559;48.898;9.184;2023-04-02T10:08:36;98223.56;;;12.12;100.00
49843;BME280;55559;48.898;9.184;2023-04-02T10:11:07;98231.53;;;12.48;100.00
49843;BME280;55559;48.898;9.184;2023-04-02T10:13:42;98236.72;;;12.32;100.00
49843;BME280;55559;48.898;9.184;2023-04-02T10:16:16;98241.13;;;12.41;100.00
49843;BME280;55559;48.898;9.184;2023-04-02T10:18:49;98242.66;;;12.43;100.00
49843;BME280;55559;48.898;9.184;2023-04-02T10:21:20;98238.16;;;12.26;100.00
49843;BME280;55559;48.898;9.184;2023-04-02T10:23:51;98238.84;;;12.46;100.00
49843;BME280;55559;48.898;9.184;2023-04-02T10:26:40;98222.41;;;12.77;100.00
49843;BME280;55559;48.898;9.184;2023-04-02T10:29:32;98237.69;;;12.67;100.00
49843;BME280;55559;48.898;9.184;2023-04-02T10:32:07;98246.84;;;12.10;100.00
49843;BME280;55559;48.898;9.184;2023-04-02T10:34:42;98249.13;;;12.41;100.00
49843;BME280;55559;48.898;9.184;2023-04-02T10:37:35;98246.50;;;12.85;100.00
49843;BME280;55559;48.898;9.184;2023-04-02T10:40:09;98250.25;;;12.56;100.00
49843;BME280;55559;48.898;9.184;2023-04-02T10:42:43;98254.97;;;12.62;100.00
49843;BME280;55559;48.898;9.184;2023-04-02T10:45:22;98260.00;;;12.65;100.00
49843;BME280;55559;48.898;9.184;2023-04-02T10:47:58;98257.06;;;12.33;100.00
49843;BME280;55559;48.898;9.184;2023-04-02T10:50:34;98255.19;;;12.43;100.00
49843;BME280;55559;48.898;9.184;2023-04-02T10:53:09;98266.59;;;12.53;100.00
49843;BME280;55559;48.898;9.184;2023-04-02T10:55:43;98270.16;;;12.26;100.00
49843;BME280;55559;48.898;9.184;2023-04-02T10:58:29;98271.66;;;12.64;100.00
49843;BME280;55559;48.898;9.184;2023-04-02T11:00:59;98276.47;;;12.61;100.00
49843;BME280;55559;48.898;9.184;2023-04-02T11:03:31;98269.28;;;12.79;100.00
49843;BME280;55559;48.898;9.184;2023-04-02T11:06:04;98276.09;;;13.00;100.00
49843;BME280;55559;48.898;9.184;2023-04-02T11:08:39;98283.13;;;13.01;100.00
49843;BME280;55559;48.898;9.184;2023-04-02T11:11:12;98283.19;;;13.09;99.76
49843;BME280;55559;48.898;9.184;2023-04-02T11:13:49;98287.41;;;12.94;100.00
49843;BME280;55559;48.898;9.184;2023-04-02T11:16:19;98288.38;;;12.67;100.00
49843;BME280;55559;48.898;9.184;2023-04-02T11:19:15;98290.91;;;12.50;100.00
49843;BME280;55559;48.898;9.184;2023-04-02T11:21:47;98291.06;;;12.49;100.00
49843;BME280;55559;48.898;9.184;2023-04-02T11:24:24;98291.13;;;12.39;100.00
49843;BME280;55559;48.898;9.184;2023-04-02T11:27:03;98296.66;;;12.27;100.00
49843;BME280;55559;48.898;9.184;2023-04-02T11:29:32;98298.13;;;12.40;100.00
49843;BME280;55559;48.898;9.184;2023-04-02T11:32:26;98300.47;;;12.79;100.00
49843;BME280;55559;48.898;9.184;2023-04-02T11:35:26;98300.19;;;12.46;100.00
49843;BME280;55559;48.898;9.184;2023-04-02T11:37:56;98303.56;;;12.48;100.00
49843;BME280;55559;48.898;9.184;2023-04-02T11:40:44;98301.34;;;12.43;100.00
49843;BME280;55559;48.898;9.184;2023-04-02T11:43:48;98311.94;;;13.24;100.00
49843;BME280;55559;48.898;9.184;2023-04-02T11:46:44;98310.50;;;13.29;100.00
49843;BME280;55559;48.898;9.184;2023-04-02T11:49:34;98311.50;;;13.02;100.00
49843;BME280;55559;48.898;9.184;2023-04-02T11:52:25;98313.34;;;12.83;100.00
49843;BME280;55559;48.898;9.184;2023-04-02T11:54:56;98311.59;;;12.74;100.00
49843;BME280;55559;48.898;9.184;2023-04-02T11:57:42;98319.31;;;12.41;100.00
49843;BME280;55559;48.898;9.184;2023-04-02T12:00:32;98328.03;;;11.98;100.00
49843;BME280;55559;48.898;9.184;2023-04-02T12:03:21;98328.13;;;12.06;100.00
49843;BME280;55559;48.898;9.184;2023-04-02T12:06:00;98335.88;;;11.89;100.00
49843;BME280;55559;48.898;9.184;2023-04-02T12:08:40;98322.75;;;11.78;100.00
49843;BME280;55559;48.898;9.184;2023-04-02T12:11:13;98332.00;;;11.84;100.00
49843;BME280;55559;48.898;9.184;2023-04-02T12:13:49;98339.28;;;11.82;100.00
49843;BME280;55559;48.898;9.184;2023-04-02T12:16:18;98332.16;;;11.82;100.00
49843;BME280;55559;48.898;9.184;2023-04-02T12:18:47;98335.50;;;11.84;100.00
49843;BME280;55559;48.898;9.184;2023-04-02T12:21:20;98341.13;;;12.09;100.00
49843;BME280;55559;48.898;9.184;2023-04-02T12:23:51;98341.22;;;12.17;100.00
49843;BME280;55559;48.898;9.184;2023-04-02T12:26:26;98344.59;;;12.19;100.00
49843;BME280;55559;48.898;9.184;2023-04-02T12:29:13;98348.66;;;11.96;100.00
49843;BME280;55559;48.898;9.184;2023-04-02T12:31:43;98345.53;;;12.00;100.00
49843;BME280;55559;48.898;9.184;2023-04-02T12:34:13;98346.53;;;11.89;100.00
49843;BME280;55559;48.898;9.184;2023-04-02T12:36:53;98352.00;;;11.98;100.00
49843;BME280;55559;48.898;9.184;2023-04-02T12:39:21;98359.91;;;11.80;100.00
49843;BME280;55559;48.898;9.184;2023-04-02T12:41:49;98357.91;;;11.91;100.00
49843;BME280;55559;48.898;9.184;2023-04-02T12:44:18;98359.59;;;11.93;100.00
49843;BME280;55559;48.898;9.184;2023-04-02T12:46:48;98365.66;;;11.75;100.00
49843;BME280;55559;48.898;9.184;2023-04-02T12:49:26;98365.63;;;11.47;100.00
49843;BME280;55559;48.898;9.184;2023-04-02T12:51:56;98369.59;;;11.33;100.00
49843;BME280;55559;48.898;9.184;2023-04-02T12:54:24;98377.44;;;11.35;100.00
49843;BME280;55559;48.898;9.184;2023-04-02T12:56:52;98388.13;;;11.15;100.00
49843;BME280;55559;48.898;9.184;2023-04-02T12:59:28;98398.22;;;10.73;100.00
49843;BME280;55559;48.898;9.184;2023-04-02T13:01:59;98402.50;;;10.45;100.00
49843;BME280;55559;48.898;9.184;2023-04-02T13:04:27;98415.72;;;9.84;100.00
49843;BME280;55559;48.898;9.184;2023-04-02T13:06:55;98418.25;;;9.55;100.00
49843;BME280;55559;48.898;9.184;2023-04-02T13:09:29;98423.34;;;9.47;100.00
49843;BME280;55559;48.898;9.184;2023-04-02T13:11:57;98421.56;;;9.26;100.00
49843;BME280;55559;48.898;9.184;2023-04-02T13:14:25;98423.53;;;9.34;100.00
49843;BME280;55559;48.898;9.184;2023-04-02T13:16:54;98437.50;;;8.94;100.00
49843;BME280;55559;48.898;9.184;2023-04-02T13:19:29;98437.19;;;8.87;100.00
49843;BME280;55559;48.898;9.184;2023-04-02T13:21:58;98433.78;;;8.85;100.00
49843;BME280;55559;48.898;9.184;2023-04-02T13:24:27;98447.09;;;8.74;100.00
49843;BME280;55559;48.898;9.184;2023-04-02T13:26:56;98448.44;;;8.68;100.00
49843;BME280;55559;48.898;9.184;2023-04-02T13:29:27;98459.31;;;8.65;100.00
49843;BME280;55559;48.898;9.184;2023-04-02T13:31:57;98452.03;;;8.79;100.00
49843;BME280;55559;48.898;9.184;2023-04-02T13:34:27;98462.75;;;8.77;100.00
49843;BME280;55559;48.898;9.184;2023-04-02T13:36:54;98461.09;;;8.65;100.00
49843;BME280;55559;48.898;9.184;2023-04-02T13:39:22;98461.06;;;8.76;100.00